sensor_id;sensor_type;location;lat;lon;timestamp;temperature;humidity
37460;DHT22;23318;50.966;5.284;2023-04-25T00:02:02;9.40;99.90
37460;DHT22;23318;50.966;5.284;2023-04-25T00:04:29;9.80;99.90
37460;DHT22;23318;50.966;5.284;2023-04-25T00:06:55;10.00;99.90
37460;DHT22;23318;50.966;5.284;2023-04-25T00:09:24;10.00;99.90
37460;DHT22;23318;50.966;5.284;2023-04-25T00:11:51;9.90;99.90
37460;DHT22;23318;50.966;5.284;2023-04-25T00:14:16;10.40;99.90
37460;DHT22;23318;50.966;5.284;2023-04-25T00:16:42;9.80;99.90
37460;DHT22;23318;50.966;5.284;2023-04-25T00:19:09;9.90;99.90
37460;DHT22;23318;50.966;5.284;2023-04-25T00:21:35;9.60;99.90
37460;DHT22;23318;50.966;5.284;2023-04-25T00:24:03;9.40;99.90
37460;DHT22;23318;50.966;5.284;2023-04-25T00:26:29;9.60;99.90
37460;DHT22;23318;50.966;5.284;2023-04-25T00:28:55;9.50;99.90
37460;DHT22;23318;50.966;5.284;2023-04-25T00:31:21;9.00;99.90
37460;DHT22;23318;50.966;5.284;2023-04-25T00:33:47;8.70;99.90
37460;DHT22;23318;50.966;5.284;2023-04-25T00:36:13;9.20;99.90
37460;DHT22;23318;50.966;5.284;2023-04-25T00:38:40;9.10;99.90
37460;DHT22;23318;50.966;5.284;2023-04-25T00:41:08;8.80;99.90
37460;DHT22;23318;50.966;5.284;2023-04-25T00:43:36;8.60;99.90
37460;DHT22;23318;50.966;5.284;2023-04-25T00:46:02;8.70;99.90
37460;DHT22;23318;50.966;5.284;2023-04-25T00:48:28;8.50;99.90
37460;DHT22;23318;50.966;5.284;2023-04-25T00:50:56;8.60;99.90
37460;DHT22;23318;50.966;5.284;2023-04-25T00:53:23;8.70;99.90
37460;DHT22;23318;50.966;5.284;2023-04-25T00:55:49;8.90;99.90
37460;DHT22;23318;50.966;5.284;2023-04-25T00:58:20;8.50;99.90
37460;DHT22;23318;50.966;5.284;2023-04-25T01:00:47;8.40;99.90
37460;DHT22;23318;50.966;5.284;2023-04-25T01:03:16;8.20;99.90
37460;DHT22;23318;50.966;5.284;2023-04-25T01:05:45;8.20;99.90
37460;DHT22;23318;50.966;5.284;2023-04-25T01:08:12;8.50;99.90
37460;DHT22;23318;50.966;5.284;2023-04-25T01:10:38;8.30;99.90
37460;DHT22;23318;50.966;5.284;2023-04-25T01:13:04;8.60;99.90
37460;DHT22;23318;50.966;5.284;2023-04-25T01:15:30;8.80;99.90
37460;DHT22;23318;50.966;5.284;2023-04-25T01:17:56;9.20;99.90
37460;DHT22;23318;50.966;5.284;2023-04-25T01:20:22;9.20;99.90
37460;DHT22;23318;50.966;5.284;2023-04-25T01:22:51;9.30;99.90
37460;DHT22;23318;50.966;5.284;2023-04-25T01:25:18;9.10;99.90
37460;DHT22;23318;50.966;5.284;2023-04-25T01:27:45;8.90;99.90
37460;DHT22;23318;50.966;5.284;2023-04-25T01:30:11;8.70;99.90
37460;DHT22;23318;50.966;5.284;2023-04-25T01:32:37;8.70;99.90
37460;DHT22;23318;50.966;5.284;2023-04-25T01:35:11;9.20;99.90
37460;DHT22;23318;50.966;5.284;2023-04-25T01:37:44;9.40;99.90
37460;DHT22;23318;50.966;5.284;2023-04-25T01:40:11;9.20;99.90
37460;DHT22;23318;50.966;5.284;2023-04-25T01:42:39;9.80;99.90
37460;DHT22;23318;50.966;5.284;2023-04-25T01:45:06;9.70;99.90
37460;DHT22;23318;50.966;5.284;2023-04-25T01:47:32;9.80;99.90
37460;DHT22;23318;50.966;5.284;2023-04-25T01:50:01;9.50;99.90
37460;DHT22;23318;50.966;5.284;2023-04-25T01:52:27;9.70;99.90
37460;DHT22;23318;50.966;5.284;2023-04-25T01:54:53;9.90;99.90
37460;DHT22;23318;50.966;5.284;2023-04-25T01:57:18;10.00;99.90
37460;DHT22;23318;50.966;5.284;2023-04-25T01:59:44;9.50;99.90
37460;DHT22;23318;50.966;5.284;2023-04-25T02:02:10;9.60;99.90
37460;DHT22;23318;50.966;5.284;2023-04-25T02:04:36;9.60;99.90
37460;DHT22;23318;50.966;5.284;2023-04-25T02:07:02;9.10;99.90
37460;DHT22;23318;50.966;5.284;2023-04-25T02:09:28;9.10;99.90
37460;DHT22;23318;50.966;5.284;2023-04-25T02:11:54;9.50;99.90
37460;DHT22;23318;50.966;5.284;2023-04-25T02:14:19;9.30;99.90
37460;DHT22;23318;50.966;5.284;2023-04-25T02:16:46;8.70;99.90
37460;DHT22;23318;50.966;5.284;2023-04-25T02:19:12;8.50;99.90
37460;DHT22;23318;50.966;5.284;2023-04-25T02:21:38;8.40;99.90
37460;DHT22;23318;50.966;5.284;2023-04-25T02:24:04;8.80;99.90
37460;DHT22;23318;50.966;5.284;2023-04-25T02:26:29;9.10;99.90
37460;DHT22;23318;50.966;5.284;2023-04-25T02:28:56;9.60;99.90
37460;DHT22;23318;50.966;5.284;2023-04-25T02:31:22;9.60;99.90
37460;DHT22;23318;50.966;5.284;2023-04-25T02:33:48;9.60;99.90
37460;DHT22;23318;50.966;5.284;2023-04-25T02:36:14;9.90;99.90
37460;DHT22;23318;50.966;5.284;2023-04-25T02:38:40;9.80;99.90
37460;DHT22;23318;50.966;5.284;2023-04-25T02:41:06;9.70;99.90
37460;DHT22;23318;50.966;5.284;2023-04-25T02:43:31;10.00;99.90
37460;DHT22;23318;50.966;5.284;2023-04-25T02:45:57;10.10;99.90
37460;DHT22;23318;50.966;5.284;2023-04-25T02:48:23;9.70;99.90
37460;DHT22;23318;50.966;5.284;2023-04-25T02:50:48;9.40;99.90
37460;DHT22;23318;50.966;5.284;2023-04-25T02:53:14;9.50;99.90
37460;DHT22;23318;50.966;5.284;2023-04-25T02:55:40;9.70;99.90
37460;DHT22;23318;50.966;5.284;2023-04-25T02:58:06;9.90;99.90
37460;DHT22;23318;50.966;5.284;2023-04-25T03:00:31;10.00;99.90
37460;DHT22;23318;50.966;5.284;2023-04-25T03:02:57;10.10;99.90
37460;DHT22;23318;50.966;5.284;2023-04-25T03:05:23;10.20;99.90
37460;DHT22;23318;50.966;5.284;2023-04-25T03:07:48;9.90;99.90
37460;DHT22;23318;50.966;5.284;2023-04-25T03:10:14;9.40;99.90
37460;DHT22;23318;50.966;5.284;2023-04-25T03:12:40;9.40;99.90
37460;DHT22;23318;50.966;5.284;2023-04-25T03:15:06;9.40;99.90
37460;DHT22;23318;50.966;5.284;2023-04-25T03:17:31;8.90;99.90
37460;DHT22;23318;50.966;5.284;2023-04-25T03:19:57;9.10;99.90
37460;DHT22;23318;50.966;5.284;2023-04-25T03:22:23;9.60;99.90
37460;DHT22;23318;50.966;5.284;2023-04-25T03:24:49;9.00;99.90
37460;DHT22;23318;50.966;5.284;2023-04-25T03:27:15;8.90;99.90
37460;DHT22;23318;50.966;5.284;2023-04-25T03:29:41;8.70;99.90
37460;DHT22;23318;50.966;5.284;2023-04-25T03:32:07;8.40;99.90
37460;DHT22;23318;50.966;5.284;2023-04-25T03:34:32;8.40;99.90
37460;DHT22;23318;50.966;5.284;2023-04-25T03:36:58;8.60;99.90
37460;DHT22;23318;50.966;5.284;2023-04-25T03:39:25;8.60;99.90
37460;DHT22;23318;50.966;5.284;2023-04-25T03:41:51;8.70;99.90
37460;DHT22;23318;50.966;5.284;2023-04-25T03:44:16;8.30;99.90
37460;DHT22;23318;50.966;5.284;2023-04-25T03:46:42;8.20;99.90
37460;DHT22;23318;50.966;5.284;2023-04-25T03:49:08;8.20;99.90
37460;DHT22;23318;50.966;5.284;2023-04-25T03:51:34;8.00;99.90
37460;DHT22;23318;50.966;5.284;2023-04-25T03:53:59;7.90;99.90
37460;DHT22;23318;50.966;5.284;2023-04-25T03:56:25;7.90;99.90
37460;DHT22;23318;50.966;5.284;2023-04-25T03:58:51;7.90;99.90
37460;DHT22;23318;50.966;5.284;2023-04-25T04:01:16;7.70;99.90
37460;DHT22;23318;50.966;5.284;2023-04-25T04:03:42;7.60;99.90
37460;DHT22;23318;50.966;5.284;2023-04-25T04:06:08;7.40;99.90
37460;DHT22;23318;50.966;5.284;2023-04-25T04:08:34;7.10;99.90
37460;DHT22;23318;50.966;5.284;2023-04-25T04:11:00;7.00;99.90
37460;DHT22;23318;50.966;5.284;2023-04-25T04:13:26;6.90;99.90
37460;DHT22;23318;50.966;5.284;2023-04-25T04:15:52;7.00;99.90
37460;DHT22;23318;50.966;5.284;2023-04-25T04:18:18;7.00;99.90
37460;DHT22;23318;50.966;5.284;2023-04-25T04:20:44;7.10;99.90
37460;DHT22;23318;50.966;5.284;2023-04-25T04:23:10;6.90;99.90
37460;DHT22;23318;50.966;5.284;2023-04-25T04:25:36;6.80;99.90
37460;DHT22;23318;50.966;5.284;2023-04-25T04:28:02;7.00;99.90
37460;DHT22;23318;50.966;5.284;2023-04-25T04:30:28;7.20;99.90
37460;DHT22;23318;50.966;5.284;2023-04-25T04:32:57;7.40;99.90
37460;DHT22;23318;50.966;5.284;2023-04-25T04:35:23;7.80;99.90
37460;DHT22;23318;50.966;5.284;2023-04-25T04:37:49;7.90;99.90
37460;DHT22;23318;50.966;5.284;2023-04-25T04:40:17;8.10;99.90
37460;DHT22;23318;50.966;5.284;2023-04-25T04:42:43;8.10;99.90
37460;DHT22;23318;50.966;5.284;2023-04-25T04:45:11;7.90;99.90
37460;DHT22;23318;50.966;5.284;2023-04-25T04:47:38;7.60;99.90
37460;DHT22;23318;50.966;5.284;2023-04-25T04:50:06;7.30;99.90
37460;DHT22;23318;50.966;5.284;2023-04-25T04:52:34;7.30;99.90
37460;DHT22;23318;50.966;5.284;2023-04-25T04:55:00;7.30;99.90
37460;DHT22;23318;50.966;5.284;2023-04-25T04:57:25;7.60;99.90
37460;DHT22;23318;50.966;5.284;2023-04-25T04:59:52;7.60;99.90
37460;DHT22;23318;50.966;5.284;2023-04-25T05:02:17;7.70;99.90
37460;DHT22;23318;50.966;5.284;2023-04-25T05:04:43;7.40;99.90
37460;DHT22;23318;50.966;5.284;2023-04-25T05:07:09;7.50;99.90
37460;DHT22;23318;50.966;5.284;2023-04-25T05:09:35;7.40;99.90
37460;DHT22;23318;50.966;5.284;2023-04-25T05:12:00;7.80;99.90
37460;DHT22;23318;50.966;5.284;2023-04-25T05:14:26;8.40;99.90
37460;DHT22;23318;50.966;5.284;2023-04-25T05:16:52;8.00;99.90
37460;DHT22;23318;50.966;5.284;2023-04-25T05:19:17;8.00;99.90
37460;DHT22;23318;50.966;5.284;2023-04-25T05:21:43;8.10;99.90
37460;DHT22;23318;50.966;5.284;2023-04-25T05:24:09;8.70;99.90
37460;DHT22;23318;50.966;5.284;2023-04-25T05:26:35;8.50;99.90
37460;DHT22;23318;50.966;5.284;2023-04-25T05:29:00;8.80;99.90
37460;DHT22;23318;50.966;5.284;2023-04-25T05:31:26;8.90;99.90
37460;DHT22;23318;50.966;5.284;2023-04-25T05:33:52;8.80;99.90
37460;DHT22;23318;50.966;5.284;2023-04-25T05:36:20;8.70;99.90
37460;DHT22;23318;50.966;5.284;2023-04-25T05:38:46;8.40;99.90
37460;DHT22;23318;50.966;5.284;2023-04-25T05:41:12;8.60;99.90
37460;DHT22;23318;50.966;5.284;2023-04-25T05:43:38;8.80;99.90
37460;DHT22;23318;50.966;5.284;2023-04-25T05:46:03;9.20;99.90
37460;DHT22;23318;50.966;5.284;2023-04-25T05:48:29;8.70;99.90
37460;DHT22;23318;50.966;5.284;2023-04-25T05:50:55;8.60;99.90
37460;DHT22;23318;50.966;5.284;2023-04-25T05:53:21;8.40;99.90
37460;DHT22;23318;50.966;5.284;2023-04-25T05:55:47;8.50;99.90
37460;DHT22;23318;50.966;5.284;2023-04-25T05:58:13;8.50;99.90
37460;DHT22;23318;50.966;5.284;2023-04-25T06:00:39;8.60;99.90
37460;DHT22;23318;50.966;5.284;2023-04-25T06:03:06;8.70;99.90
37460;DHT22;23318;50.966;5.284;2023-04-25T06:05:35;8.70;99.90
37460;DHT22;23318;50.966;5.284;2023-04-25T06:08:01;8.40;99.90
37460;DHT22;23318;50.966;5.284;2023-04-25T06:10:26;8.10;99.90
37460;DHT22;23318;50.966;5.284;2023-04-25T06:12:52;8.30;99.90
37460;DHT22;23318;50.966;5.284;2023-04-25T06:15:18;8.50;99.90
37460;DHT22;23318;50.966;5.284;2023-04-25T06:17:43;8.40;99.90
37460;DHT22;23318;50.966;5.284;2023-04-25T06:20:09;8.70;99.90
37460;DHT22;23318;50.966;5.284;2023-04-25T06:22:35;9.10;99.90
37460;DHT22;23318;50.966;5.284;2023-04-25T06:25:01;8.90;99.90
37460;DHT22;23318;50.966;5.284;2023-04-25T06:27:29;8.90;99.90
37460;DHT22;23318;50.966;5.284;2023-04-25T06:29:55;8.70;99.90
37460;DHT22;23318;50.966;5.284;2023-04-25T06:32:20;8.50;99.90
37460;DHT22;23318;50.966;5.284;2023-04-25T06:34:46;8.50;99.90
37460;DHT22;23318;50.966;5.284;2023-04-25T06:37:11;8.40;99.90
37460;DHT22;23318;50.966;5.284;2023-04-25T06:39:37;8.50;99.90
37460;DHT22;23318;50.966;5.284;2023-04-25T06:42:03;8.70;99.90
37460;DHT22;23318;50.966;5.284;2023-04-25T06:44:28;9.10;99.90
37460;DHT22;23318;50.966;5.284;2023-04-25T06:46:55;8.90;99.90
37460;DHT22;23318;50.966;5.284;2023-04-25T06:49:21;9.00;99.90
37460;DHT22;23318;50.966;5.284;2023-04-25T06:51:46;9.20;99.90
37460;DHT22;23318;50.966;5.284;2023-04-25T06:54:12;9.00;99.90
37460;DHT22;23318;50.966;5.284;2023-04-25T06:56:38;8.80;99.90
37460;DHT22;23318;50.966;5.284;2023-04-25T06:59:03;8.90;99.90
37460;DHT22;23318;50.966;5.284;2023-04-25T07:01:29;8.80;99.90
37460;DHT22;23318;50.966;5.284;2023-04-25T07:03:55;8.50;99.90
37460;DHT22;23318;50.966;5.284;2023-04-25T07:06:21;8.30;99.90
37460;DHT22;23318;50.966;5.284;2023-04-25T07:08:46;8.30;99.90
37460;DHT22;23318;50.966;5.284;2023-04-25T07:11:12;8.50;99.90
37460;DHT22;23318;50.966;5.284;2023-04-25T07:13:37;8.70;99.90
37460;DHT22;23318;50.966;5.284;2023-04-25T07:16:03;9.00;99.90
37460;DHT22;23318;50.966;5.284;2023-04-25T07:18:29;9.40;99.90
37460;DHT22;23318;50.966;5.284;2023-04-25T07:20:55;9.50;99.90
37460;DHT22;23318;50.966;5.284;2023-04-25T07:23:20;9.20;99.90
37460;DHT22;23318;50.966;5.284;2023-04-25T07:25:46;9.10;99.90
37460;DHT22;23318;50.966;5.284;2023-04-25T07:28:12;9.10;99.90
37460;DHT22;23318;50.966;5.284;2023-04-25T07:30:38;9.10;99.90
37460;DHT22;23318;50.966;5.284;2023-04-25T07:33:03;9.40;99.90
37460;DHT22;23318;50.966;5.284;2023-04-25T07:35:29;9.50;99.90
37460;DHT22;23318;50.966;5.284;2023-04-25T07:37:55;9.30;99.90
37460;DHT22;23318;50.966;5.284;2023-04-25T07:40:21;9.40;99.90
37460;DHT22;23318;50.966;5.284;2023-04-25T07:42:46;9.40;99.90
37460;DHT22;23318;50.966;5.284;2023-04-25T07:45:12;9.50;99.90
37460;DHT22;23318;50.966;5.284;2023-04-25T07:47:38;9.70;99.90
37460;DHT22;23318;50.966;5.284;2023-04-25T07:50:04;9.90;99.90
37460;DHT22;23318;50.966;5.284;2023-04-25T07:52:31;10.20;99.90
37460;DHT22;23318;50.966;5.284;2023-04-25T07:54:56;10.00;99.90
37460;DHT22;23318;50.966;5.284;2023-04-25T07:57:24;9.60;99.90
37460;DHT22;23318;50.966;5.284;2023-04-25T07:59:50;9.20;99.90
37460;DHT22;23318;50.966;5.284;2023-04-25T08:02:15;9.20;99.90
37460;DHT22;23318;50.966;5.284;2023-04-25T08:04:41;9.50;99.90
37460;DHT22;23318;50.966;5.284;2023-04-25T08:07:06;9.80;99.90
37460;DHT22;23318;50.966;5.284;2023-04-25T08:09:32;10.30;99.90
37460;DHT22;23318;50.966;5.284;2023-04-25T08:12:02;10.30;99.90
37460;DHT22;23318;50.966;5.284;2023-04-25T08:14:28;10.00;99.90
37460;DHT22;23318;50.966;5.284;2023-04-25T08:16:56;10.40;99.90
37460;DHT22;23318;50.966;5.284;2023-04-25T08:19:22;10.50;99.90
37460;DHT22;23318;50.966;5.284;2023-04-25T08:21:47;10.70;99.90
37460;DHT22;23318;50.966;5.284;2023-04-25T08:24:13;9.90;99.90
37460;DHT22;23318;50.966;5.284;2023-04-25T08:26:39;9.60;99.90
37460;DHT22;23318;50.966;5.284;2023-04-25T08:29:06;9.80;99.90
37460;DHT22;23318;50.966;5.284;2023-04-25T08:31:31;9.80;99.90
37460;DHT22;23318;50.966;5.284;2023-04-25T08:33:57;9.80;99.90
37460;DHT22;23318;50.966;5.284;2023-04-25T08:36:23;9.90;99.90
37460;DHT22;23318;50.966;5.284;2023-04-25T08:38:49;9.70;99.90
37460;DHT22;23318;50.966;5.284;2023-04-25T08:41:15;9.50;99.90
37460;DHT22;23318;50.966;5.284;2023-04-25T08:43:42;9.50;99.90
37460;DHT22;23318;50.966;5.284;2023-04-25T08:46:09;9.70;99.90
37460;DHT22;23318;50.966;5.284;2023-04-25T08:48:36;9.80;99.90
37460;DHT22;23318;50.966;5.284;2023-04-25T08:51:02;9.50;99.90
37460;DHT22;23318;50.966;5.284;2023-04-25T08:53:32;9.30;99.90
37460;DHT22;23318;50.966;5.284;2023-04-25T08:56:00;9.40;99.90
37460;DHT22;23318;50.966;5.284;2023-04-25T08:58:29;9.40;99.90
37460;DHT22;23318;50.966;5.284;2023-04-25T09:00:54;9.70;99.90
37460;DHT22;23318;50.966;5.284;2023-04-25T09:03:20;9.90;99.90
37460;DHT22;23318;50.966;5.284;2023-04-25T09:05:46;10.20;99.90
37460;DHT22;23318;50.966;5.284;2023-04-25T09:08:12;10.60;99.90
37460;DHT22;23318;50.966;5.284;2023-04-25T09:10:38;11.30;99.90
37460;DHT22;23318;50.966;5.284;2023-04-25T09:13:08;11.80;99.30
37460;DHT22;23318;50.966;5.284;2023-04-25T09:15:47;11.90;99.10
37460;DHT22;23318;50.966;5.284;2023-04-25T09:18:21;11.40;99.60
37460;DHT22;23318;50.966;5.284;2023-04-25T09:20:46;11.90;99.00
37460;DHT22;23318;50.966;5.284;2023-04-25T09:23:13;11.90;99.20
37460;DHT22;23318;50.966;5.284;2023-04-25T09:25:39;11.60;98.40
37460;DHT22;23318;50.966;5.284;2023-04-25T09:28:06;11.30;99.10
37460;DHT22;23318;50.966;5.284;2023-04-25T09:30:33;11.10;99.40
37460;DHT22;23318;50.966;5.284;2023-04-25T09:33:07;11.20;99.00
37460;DHT22;23318;50.966;5.284;2023-04-25T09:35:40;11.40;99.20
37460;DHT22;23318;50.966;5.284;2023-04-25T09:38:13;11.80;98.30
37460;DHT22;23318;50.966;5.284;2023-04-25T09:40:43;12.20;97.80
37460;DHT22;23318;50.966;5.284;2023-04-25T09:43:20;12.60;97.60
37460;DHT22;23318;50.966;5.284;2023-04-25T09:45:46;13.10;97.10
37460;DHT22;23318;50.966;5.284;2023-04-25T09:48:20;12.90;97.40
37460;DHT22;23318;50.966;5.284;2023-04-25T09:51:04;12.50;97.70
37460;DHT22;23318;50.966;5.284;2023-04-25T09:53:32;11.80;96.90
37460;DHT22;23318;50.966;5.284;2023-04-25T09:55:59;11.30;97.00
37460;DHT22;23318;50.966;5.284;2023-04-25T09:58:25;11.40;96.70
37460;DHT22;23318;50.966;5.284;2023-04-25T10:01:00;11.90;96.30
37460;DHT22;23318;50.966;5.284;2023-04-25T10:03:30;13.10;95.80
37460;DHT22;23318;50.966;5.284;2023-04-25T10:05:59;14.00;95.10
37460;DHT22;23318;50.966;5.284;2023-04-25T10:08:36;13.50;94.40
37460;DHT22;23318;50.966;5.284;2023-04-25T10:11:04;12.60;95.00
37460;DHT22;23318;50.966;5.284;2023-04-25T10:13:31;12.30;96.10
37460;DHT22;23318;50.966;5.284;2023-04-25T10:16:02;12.30;96.00
37460;DHT22;23318;50.966;5.284;2023-04-25T10:18:29;12.00;96.80
37460;DHT22;23318;50.966;5.284;2023-04-25T10:21:00;11.90;97.80
37460;DHT22;23318;50.966;5.284;2023-04-25T10:23:29;11.20;99.00
37460;DHT22;23318;50.966;5.284;2023-04-25T10:25:55;10.50;99.90
37460;DHT22;23318;50.966;5.284;2023-04-25T10:28:21;10.40;99.90
37460;DHT22;23318;50.966;5.284;2023-04-25T10:31:07;10.60;99.90
37460;DHT22;23318;50.966;5.284;2023-04-25T10:33:38;10.60;99.20
37460;DHT22;23318;50.966;5.284;2023-04-25T10:36:14;10.70;98.10
37460;DHT22;23318;50.966;5.284;2023-04-25T10:38:42;11.10;97.00
37460;DHT22;23318;50.966;5.284;2023-04-25T10:41:09;11.50;96.30
37460;DHT22;23318;50.966;5.284;2023-04-25T10:43:44;11.60;96.10
37460;DHT22;23318;50.966;5.284;2023-04-25T10:48:57;11.70;95.90
37460;DHT22;23318;50.966;5.284;2023-04-25T10:51:25;11.80;95.70
37460;DHT22;23318;50.966;5.284;2023-04-25T10:56:22;11.60;95.40
37460;DHT22;23318;50.966;5.284;2023-04-25T10:58:48;11.30;95.70
37460;DHT22;23318;50.966;5.284;2023-04-25T11:01:24;11.60;95.20
37460;DHT22;23318;50.966;5.284;2023-04-25T11:03:57;11.60;94.90
37460;DHT22;23318;50.966;5.284;2023-04-25T11:09:10;12.00;95.10
37460;DHT22;23318;50.966;5.284;2023-04-25T11:11:38;13.00;94.10
37460;DHT22;23318;50.966;5.284;2023-04-25T11:14:04;14.10;93.30
37460;DHT22;23318;50.966;5.284;2023-04-25T11:16:30;15.10;92.30
37460;DHT22;23318;50.966;5.284;2023-04-25T11:18:57;16.50;91.80
37460;DHT22;23318;50.966;5.284;2023-04-25T11:21:24;17.30;89.50
37460;DHT22;23318;50.966;5.284;2023-04-25T11:23:51;16.60;89.50
37460;DHT22;23318;50.966;5.284;2023-04-25T11:26:19;16.50;89.70
37460;DHT22;23318;50.966;5.284;2023-04-25T11:28:45;16.80;89.50
37460;DHT22;23318;50.966;5.284;2023-04-25T11:31:12;17.00;89.60
37460;DHT22;23318;50.966;5.284;2023-04-25T11:33:38;18.60;88.30
37460;DHT22;23318;50.966;5.284;2023-04-25T11:36:06;19.10;85.40
37460;DHT22;23318;50.966;5.284;2023-04-25T11:38:32;19.20;84.70
37460;DHT22;23318;50.966;5.284;2023-04-25T11:40:58;19.80;83.00
37460;DHT22;23318;50.966;5.284;2023-04-25T11:43:25;20.30;81.50
37460;DHT22;23318;50.966;5.284;2023-04-25T11:45:51;21.60;79.60
37460;DHT22;23318;50.966;5.284;2023-04-25T11:48:18;21.70;76.70
37460;DHT22;23318;50.966;5.284;2023-04-25T11:50:44;21.40;74.30
37460;DHT22;23318;50.966;5.284;2023-04-25T11:53:10;22.30;71.80
37460;DHT22;23318;50.966;5.284;2023-04-25T11:55:37;21.30;72.40
37460;DHT22;23318;50.966;5.284;2023-04-25T11:58:04;23.20;69.50
37460;DHT22;23318;50.966;5.284;2023-04-25T12:00:30;24.30;68.40
37460;DHT22;23318;50.966;5.284;2023-04-25T12:02:57;23.30;65.00
37460;DHT22;23318;50.966;5.284;2023-04-25T12:05:31;18.90;66.60
37460;DHT22;23318;50.966;5.284;2023-04-25T12:08:13;17.00;70.50
37460;DHT22;23318;50.966;5.284;2023-04-25T12:10:40;15.70;73.10
37460;DHT22;23318;50.966;5.284;2023-04-25T12:13:23;14.60;76.20
37460;DHT22;23318;50.966;5.284;2023-04-25T12:15:50;13.60;81.80
37460;DHT22;23318;50.966;5.284;2023-04-25T12:18:19;12.50;90.60
37460;DHT22;23318;50.966;5.284;2023-04-25T12:20:46;11.80;94.40
37460;DHT22;23318;50.966;5.284;2023-04-25T12:23:12;11.40;94.90
37460;DHT22;23318;50.966;5.284;2023-04-25T12:25:43;11.20;96.20
37460;DHT22;23318;50.966;5.284;2023-04-25T12:28:18;11.30;96.50
37460;DHT22;23318;50.966;5.284;2023-04-25T12:30:58;11.10;96.40
37460;DHT22;23318;50.966;5.284;2023-04-25T12:33:26;11.20;96.50
37460;DHT22;23318;50.966;5.284;2023-04-25T12:35:53;11.40;96.10
37460;DHT22;23318;50.966;5.284;2023-04-25T12:38:25;11.40;96.10
37460;DHT22;23318;50.966;5.284;2023-04-25T12:40:51;11.40;96.20
37460;DHT22;23318;50.966;5.284;2023-04-25T12:43:17;12.10;96.10
37460;DHT22;23318;50.966;5.284;2023-04-25T12:45:53;12.90;94.70
37460;DHT22;23318;50.966;5.284;2023-04-25T12:48:19;13.60;94.10
37460;DHT22;23318;50.966;5.284;2023-04-25T12:50:46;14.20;93.70
37460;DHT22;23318;50.966;5.284;2023-04-25T12:53:22;15.10;92.70
37460;DHT22;23318;50.966;5.284;2023-04-25T12:55:48;16.40;91.40
37460;DHT22;23318;50.966;5.284;2023-04-25T12:58:18;19.10;87.90
37460;DHT22;23318;50.966;5.284;2023-04-25T13:00:45;22.50;75.90
37460;DHT22;23318;50.966;5.284;2023-04-25T13:03:11;24.10;69.50
37460;DHT22;23318;50.966;5.284;2023-04-25T13:05:38;23.10;68.40
37460;DHT22;23318;50.966;5.284;2023-04-25T13:08:03;20.50;69.60
37460;DHT22;23318;50.966;5.284;2023-04-25T13:10:30;18.40;71.80
37460;DHT22;23318;50.966;5.284;2023-04-25T13:12:56;17.40;75.40
37460;DHT22;23318;50.966;5.284;2023-04-25T13:15:22;15.80;77.90
37460;DHT22;23318;50.966;5.284;2023-04-25T13:17:48;14.30;82.20
37460;DHT22;23318;50.966;5.284;2023-04-25T13:20:14;14.00;84.80
37460;DHT22;23318;50.966;5.284;2023-04-25T13:22:41;14.10;86.30
37460;DHT22;23318;50.966;5.284;2023-04-25T13:25:08;13.60;89.90
37460;DHT22;23318;50.966;5.284;2023-04-25T13:27:35;13.20;90.20
37460;DHT22;23318;50.966;5.284;2023-04-25T13:30:02;13.40;90.50
37460;DHT22;23318;50.966;5.284;2023-04-25T13:32:35;13.70;89.90
37460;DHT22;23318;50.966;5.284;2023-04-25T13:35:03;14.30;88.60
37460;DHT22;23318;50.966;5.284;2023-04-25T13:37:29;16.10;85.90
37460;DHT22;23318;50.966;5.284;2023-04-25T13:39:55;16.80;82.00
37460;DHT22;23318;50.966;5.284;2023-04-25T13:42:22;17.70;81.00
37460;DHT22;23318;50.966;5.284;2023-04-25T13:44:48;19.00;77.80
37460;DHT22;23318;50.966;5.284;2023-04-25T13:47:14;20.80;74.00
37460;DHT22;23318;50.966;5.284;2023-04-25T13:49:39;21.50;70.50
37460;DHT22;23318;50.966;5.284;2023-04-25T13:52:05;20.30;71.40
37460;DHT22;23318;50.966;5.284;2023-04-25T13:54:31;18.90;72.70
37460;DHT22;23318;50.966;5.284;2023-04-25T13:56:57;18.80;73.50
37460;DHT22;23318;50.966;5.284;2023-04-25T13:59:24;17.10;75.20
37460;DHT22;23318;50.966;5.284;2023-04-25T14:01:51;16.00;76.40
37460;DHT22;23318;50.966;5.284;2023-04-25T14:04:17;15.00;78.60
37460;DHT22;23318;50.966;5.284;2023-04-25T14:06:42;14.50;79.70
37460;DHT22;23318;50.966;5.284;2023-04-25T14:09:08;14.40;80.10
37460;DHT22;23318;50.966;5.284;2023-04-25T14:11:36;14.50;80.50
37460;DHT22;23318;50.966;5.284;2023-04-25T14:14:02;15.70;80.90
37460;DHT22;23318;50.966;5.284;2023-04-25T14:16:29;19.50;77.10
37460;DHT22;23318;50.966;5.284;2023-04-25T14:18:55;21.70;73.20
37460;DHT22;23318;50.966;5.284;2023-04-25T14:21:20;22.50;70.10
37460;DHT22;23318;50.966;5.284;2023-04-25T14:23:46;22.60;67.90
37460;DHT22;23318;50.966;5.284;2023-04-25T14:26:13;21.40;67.60
37460;DHT22;23318;50.966;5.284;2023-04-25T14:28:38;19.50;69.20
37460;DHT22;23318;50.966;5.284;2023-04-25T14:31:04;17.50;71.40
37460;DHT22;23318;50.966;5.284;2023-04-25T14:33:30;16.30;73.60
37460;DHT22;23318;50.966;5.284;2023-04-25T14:35:56;15.30;75.10
37460;DHT22;23318;50.966;5.284;2023-04-25T14:38:22;15.00;76.40
37460;DHT22;23318;50.966;5.284;2023-04-25T14:40:50;14.80;77.40
37460;DHT22;23318;50.966;5.284;2023-04-25T14:43:16;14.80;78.00
37460;DHT22;23318;50.966;5.284;2023-04-25T14:45:42;14.60;76.40
37460;DHT22;23318;50.966;5.284;2023-04-25T14:48:08;14.80;75.90
37460;DHT22;23318;50.966;5.284;2023-04-25T14:50:33;15.70;74.90
37460;DHT22;23318;50.966;5.284;2023-04-25T14:52:59;18.00;74.50
37460;DHT22;23318;50.966;5.284;2023-04-25T14:55:26;18.20;74.20
37460;DHT22;23318;50.966;5.284;2023-04-25T14:57:53;16.40;74.50
37460;DHT22;23318;50.966;5.284;2023-04-25T15:00:19;15.30;75.10
37460;DHT22;23318;50.966;5.284;2023-04-25T15:02:46;14.60;76.40
37460;DHT22;23318;50.966;5.284;2023-04-25T15:05:12;14.40;77.00
37460;DHT22;23318;50.966;5.284;2023-04-25T15:07:39;14.60;77.10
37460;DHT22;23318;50.966;5.284;2023-04-25T15:10:06;15.30;78.00
37460;DHT22;23318;50.966;5.284;2023-04-25T15:12:36;16.00;77.20
37460;DHT22;23318;50.966;5.284;2023-04-25T15:15:03;16.20;76.90
37460;DHT22;23318;50.966;5.284;2023-04-25T15:17:31;15.50;76.90
37460;DHT22;23318;50.966;5.284;2023-04-25T15:19:56;15.40;78.60
37460;DHT22;23318;50.966;5.284;2023-04-25T15:22:22;16.40;78.70
37460;DHT22;23318;50.966;5.284;2023-04-25T15:24:48;17.40;77.10
37460;DHT22;23318;50.966;5.284;2023-04-25T15:27:14;17.20;76.40
37460;DHT22;23318;50.966;5.284;2023-04-25T15:29:39;15.50;77.60
37460;DHT22;23318;50.966;5.284;2023-04-25T15:32:05;15.00;78.30
37460;DHT22;23318;50.966;5.284;2023-04-25T15:34:31;14.70;79.10
37460;DHT22;23318;50.966;5.284;2023-04-25T15:36:57;14.30;79.30
37460;DHT22;23318;50.966;5.284;2023-04-25T15:39:23;14.30;80.00
37460;DHT22;23318;50.966;5.284;2023-04-25T15:41:49;13.90;80.50
37460;DHT22;23318;50.966;5.284;2023-04-25T15:44:14;13.70;79.90
37460;DHT22;23318;50.966;5.284;2023-04-25T15:46:40;13.50;80.20